Time;durP1;ratioP1;P1;durP2;ratioP2;P2;SDS_P1;SDS_P2;PMS_P1;PMS_P2;Temp;Humidity;BMP_temperature;BMP_pressure;BME280_temperature;BME280_humidity;BME280_pressure;Samples;Min_cycle;Max_cycle;Signal;HPM_P1;HPM_P2
2023/07/19 00:01:49;;;;;;;6.93;3.45;;;21.50;99.90;;;;;;4178708;28;20123;-64
2023/07/19 00:03:50;;;;;;;5.55;3.13;;;21.60;99.90;;;;;;4179406;28;20037;-64
2023/07/19 00:05:51;;;;;;;3.70;2.95;;;21.60;99.90;;;;;;4178834;28;20033;-64
2023/07/19 00:07:52;;;;;;;4.43;3.60;;;21.60;99.90;;;;;;4180115;28;20041;-65
2023/07/19 00:09:53;;;;;;;4.55;3.40;;;21.60;99.90;;;;;;4179219;28;20033;-64
2023/07/19 00:11:54;;;;;;;4.90;3.08;;;21.60;99.90;;;;;;4180105;28;20447;-64
2023/07/19 00:13:55;;;;;;;4.57;3.22;;;21.60;99.90;;;;;;4179082;28;20045;-65
2023/07/19 00:15:57;;;;;;;5.72;2.97;;;21.70;99.90;;;;;;4180285;28;20029;-64
2023/07/19 00:17:58;;;;;;;5.57;3.10;;;21.70;99.90;;;;;;4178818;28;20078;-65
2023/07/19 00:19:59;;;;;;;6.97;3.50;;;21.70;99.90;;;;;;4180011;28;20086;-67
2023/07/19 00:22:00;;;;;;;5.40;3.30;;;21.70;99.90;;;;;;4178678;28;20460;-65
2023/07/19 00:24:01;;;;;;;5.30;3.45;;;21.70;99.90;;;;;;4179210;28;20045;-64
2023/07/19 00:26:02;;;;;;;4.90;3.17;;;21.70;99.90;;;;;;4179409;28;20029;-65
2023/07/19 00:28:04;;;;;;;7.88;3.83;;;21.70;99.90;;;;;;4179321;28;20091;-65
2023/07/19 00:30:05;;;;;;;7.85;3.25;;;21.70;99.90;;;;;;4178902;28;20130;-65
2023/07/19 00:32:07;;;;;;;6.22;3.20;;;21.70;99.90;;;;;;4179261;28;20025;-64
2023/07/19 00:34:08;;;;;;;5.25;3.05;;;21.60;99.90;;;;;;4179107;28;20041;-65
2023/07/19 00:36:09;;;;;;;4.85;3.40;;;21.60;99.90;;;;;;4178303;28;20029;-65
2023/07/19 00:38:10;;;;;;;7.50;3.80;;;21.60;99.90;;;;;;4179594;28;20659;-65
2023/07/19 00:40:12;;;;;;;10.63;4.30;;;21.60;99.90;;;;;;4178745;28;20037;-65
2023/07/19 00:42:13;;;;;;;6.43;3.65;;;21.60;99.90;;;;;;4161706;28;20045;-65
2023/07/19 00:44:14;;;;;;;4.75;3.25;;;21.50;99.90;;;;;;4178698;28;20174;-63
2023/07/19 00:46:16;;;;;;;7.60;3.40;;;21.50;99.90;;;;;;4178588;28;20436;-64
2023/07/19 00:48:18;;;;;;;4.55;3.67;;;21.50;99.90;;;;;;4177935;28;20044;-65
2023/07/19 00:50:20;;;;;;;5.38;3.97;;;21.50;99.90;;;;;;4179421;28;20112;-65
2023/07/19 00:52:21;;;;;;;4.82;3.28;;;21.40;99.90;;;;;;4177978;28;20396;-64
2023/07/19 00:54:23;;;;;;;5.50;3.40;;;21.40;99.90;;;;;;4179707;28;20083;-64
2023/07/19 00:56:25;;;;;;;4.28;3.13;;;21.30;99.90;;;;;;4177713;28;20029;-65
2023/07/19 00:58:26;;;;;;;5.50;3.83;;;21.40;99.90;;;;;;4178820;28;20083;-65
2023/07/19 01:00:28;;;;;;;5.18;3.03;;;21.30;99.90;;;;;;4178158;28;20079;-64
2023/07/19 01:02:30;;;;;;;4.63;3.13;;;21.30;99.90;;;;;;4178279;28;20094;-63
2023/07/19 01:04:31;;;;;;;3.55;3.05;;;21.30;99.90;;;;;;4178733;28;20079;-64
2023/07/19 01:06:32;;;;;;;7.07;2.97;;;21.30;99.90;;;;;;4177938;28;20041;-66
2023/07/19 01:08:34;;;;;;;5.80;3.08;;;21.30;99.90;;;;;;4179133;28;20045;-65
2023/07/19 01:10:35;;;;;;;5.47;3.08;;;21.30;99.90;;;;;;4178341;28;20040;-63
2023/07/19 01:12:36;;;;;;;3.50;3.08;;;21.30;99.90;;;;;;4177851;28;20041;-64
2023/07/19 01:14:38;;;;;;;3.50;3.20;;;21.40;99.90;;;;;;4178007;28;20102;-65
2023/07/19 01:16:39;;;;;;;7.88;3.15;;;21.40;99.90;;;;;;4178757;28;20053;-65
2023/07/19 01:18:40;;;;;;;5.13;2.92;;;21.40;99.90;;;;;;4176996;28;20067;-65
2023/07/19 01:20:41;;;;;;;6.72;3.15;;;21.40;99.90;;;;;;4179311;28;20485;-66
2023/07/19 01:22:44;;;;;;;3.38;2.78;;;21.40;99.90;;;;;;4177974;28;20075;-64
2023/07/19 01:24:45;;;;;;;5.72;3.17;;;21.40;99.90;;;;;;4179134;28;20056;-65
2023/07/19 01:26:47;;;;;;;5.97;3.10;;;21.40;99.90;;;;;;4177106;28;20045;-65
2023/07/19 01:28:48;;;;;;;7.07;3.38;;;21.40;99.90;;;;;;4178824;28;20049;-65
2023/07/19 01:30:50;;;;;;;6.28;3.40;;;21.40;99.90;;;;;;4160310;28;20035;-65
2023/07/19 01:32:51;;;;;;;4.20;3.42;;;21.40;99.90;;;;;;4178756;28;20083;-65
2023/07/19 01:34:52;;;;;;;4.70;3.33;;;21.40;99.90;;;;;;4160396;28;20088;-65
2023/07/19 01:36:53;;;;;;;4.05;3.10;;;21.40;99.90;;;;;;4160212;28;20525;-65
2023/07/19 01:38:54;;;;;;;5.20;3.40;;;21.30;99.90;;;;;;4178492;28;20029;-65
2023/07/19 01:40:55;;;;;;;4.38;2.92;;;21.30;99.90;;;;;;4159592;28;20045;-65
2023/07/19 01:42:56;;;;;;;8.02;3.35;;;21.30;99.90;;;;;;4178809;28;20485;-64
2023/07/19 01:45:00;;;;;;;6.05;2.83;;;21.30;99.90;;;;;;4177803;28;20083;-64
2023/07/19 01:47:01;;;;;;;7.85;3.97;;;21.20;99.90;;;;;;4178531;28;20025;-64
2023/07/19 01:49:02;;;;;;;6.80;3.40;;;21.20;99.90;;;;;;4177670;28;20036;-63
2023/07/19 01:51:05;;;;;;;7.10;3.15;;;21.10;99.90;;;;;;4178359;28;20108;-65
2023/07/19 01:53:06;;;;;;;4.80;3.55;;;21.20;99.90;;;;;;4177720;28;20029;-64
2023/07/19 01:55:07;;;;;;;4.38;3.00;;;21.20;99.90;;;;;;4179021;28;20036;-65
2023/07/19 01:57:08;;;;;;;6.55;3.35;;;21.10;99.90;;;;;;4176394;28;20037;-65
2023/07/19 01:59:09;;;;;;;4.35;3.58;;;21.10;99.90;;;;;;4176770;28;20045;-64
2023/07/19 02:01:11;;;;;;;5.32;2.97;;;21.00;99.90;;;;;;4177371;28;20036;-65
2023/07/19 02:03:12;;;;;;;3.65;2.78;;;21.00;99.90;;;;;;4178091;28;20025;-64
2023/07/19 02:05:13;;;;;;;9.88;3.63;;;21.10;99.90;;;;;;4177384;28;20021;-64
2023/07/19 02:07:14;;;;;;;3.90;3.45;;;21.10;99.90;;;;;;4177377;28;20045;-64
2023/07/19 02:09:15;;;;;;;5.28;3.45;;;21.10;99.90;;;;;;4177955;28;20388;-65
2023/07/19 02:11:16;;;;;;;5.00;3.63;;;21.10;99.90;;;;;;4177343;28;20451;-64
2023/07/19 02:13:18;;;;;;;4.22;3.63;;;21.10;99.90;;;;;;4177434;28;20037;-64
2023/07/19 02:15:19;;;;;;;6.22;3.88;;;21.10;99.90;;;;;;4176476;28;20429;-64
2023/07/19 02:17:20;;;;;;;9.90;4.38;;;21.10;99.90;;;;;;4178443;28;20029;-64
2023/07/19 02:19:21;;;;;;;9.52;4.38;;;21.00;99.90;;;;;;4176990;28;20388;-64
2023/07/19 02:21:23;;;;;;;7.82;4.30;;;20.90;99.90;;;;;;4177885;28;20090;-64
2023/07/19 02:23:24;;;;;;;5.13;3.80;;;20.70;99.90;;;;;;4175558;28;20469;-64
2023/07/19 02:25:25;;;;;;;10.80;4.85;;;20.50;99.90;;;;;;4177729;28;20032;-63
2023/07/19 02:27:26;;;;;;;8.13;4.93;;;20.40;99.90;;;;;;4176277;28;20099;-66
2023/07/19 02:29:28;;;;;;;5.93;4.55;;;20.30;99.90;;;;;;4177604;28;20548;-64
2023/07/19 02:31:29;;;;;;;7.88;4.97;;;20.20;99.90;;;;;;4176996;28;20021;-65
2023/07/19 02:33:30;;;;;;;16.35;5.05;;;20.00;99.90;;;;;;4177801;28;20029;-63
2023/07/19 02:35:31;;;;;;;9.50;5.28;;;19.80;99.90;;;;;;4177121;28;20447;-64
2023/07/19 02:37:32;;;;;;;9.20;6.05;;;19.70;99.90;;;;;;4176660;28;20459;-64
2023/07/19 02:39:33;;;;;;;9.88;5.60;;;19.60;99.90;;;;;;4177459;28;20033;-66
2023/07/19 02:41:34;;;;;;;9.25;5.82;;;19.50;99.90;;;;;;4176654;28;20469;-64
2023/07/19 02:43:35;;;;;;;12.00;6.18;;;19.40;99.90;;;;;;4177648;28;20028;-64
2023/07/19 02:45:36;;;;;;;15.20;5.93;;;19.30;99.90;;;;;;4176498;28;20086;-64
2023/07/19 02:47:38;;;;;;;9.70;6.22;;;19.30;99.90;;;;;;4177481;28;20033;-64
2023/07/19 02:49:41;;;;;;;10.90;6.57;;;19.30;99.90;;;;;;4176727;28;20037;-63
2023/07/19 02:51:42;;;;;;;8.90;6.28;;;19.30;99.90;;;;;;4177706;28;20602;-63
2023/07/19 02:53:43;;;;;;;12.75;6.60;;;19.30;99.90;;;;;;4176461;28;20033;-65
2023/07/19 02:55:45;;;;;;;8.07;6.20;;;19.40;99.90;;;;;;4177892;28;20512;-65
2023/07/19 02:57:46;;;;;;;11.25;6.40;;;19.40;99.90;;;;;;4176861;28;20512;-65
2023/07/19 02:59:47;;;;;;;10.38;6.50;;;19.40;99.90;;;;;;4177987;28;20033;-65
2023/07/19 03:01:48;;;;;;;8.27;6.55;;;19.40;99.90;;;;;;4175404;28;20161;-65
2023/07/19 03:03:49;;;;;;;10.65;6.95;;;19.40;99.90;;;;;;4157879;28;20043;-67
2023/07/19 03:05:50;;;;;;;8.50;5.93;;;19.40;99.90;;;;;;4175852;28;20029;-65
2023/07/19 03:07:52;;;;;;;11.73;6.57;;;19.40;99.90;;;;;;4176148;28;20025;-66
2023/07/19 03:09:53;;;;;;;9.38;6.78;;;19.30;99.90;;;;;;4176864;28;20342;-66
2023/07/19 03:11:54;;;;;;;9.77;6.72;;;19.40;99.90;;;;;;4176701;28;20033;-64
2023/07/19 03:13:55;;;;;;;13.25;6.82;;;19.40;99.90;;;;;;4177236;28;20029;-64
2023/07/19 03:15:57;;;;;;;9.52;6.45;;;19.40;99.90;;;;;;4175819;28;20036;-64
2023/07/19 03:18:02;;;;;;;13.45;6.82;;;19.40;99.90;;;;;;4176969;28;20083;-63
2023/07/19 03:20:05;;;;;;;10.43;6.45;;;19.40;99.90;;;;;;4176198;28;20029;-63
2023/07/19 03:22:06;;;;;;;9.93;6.85;;;19.40;99.90;;;;;;4177446;28;20457;-64
2023/07/19 03:24:08;;;;;;;11.52;7.15;;;19.40;99.90;;;;;;4175280;28;20384;-65
2023/07/19 03:26:10;;;;;;;7.47;6.22;;;19.40;99.90;;;;;;4177847;28;20464;-65
2023/07/19 03:28:11;;;;;;;10.40;6.05;;;19.40;99.90;;;;;;4176362;28;20026;-65
2023/07/19 03:30:13;;;;;;;12.95;6.72;;;19.40;99.90;;;;;;4175516;28;20099;-64
2023/07/19 03:32:15;;;;;;;8.55;6.78;;;19.40;99.90;;;;;;4176126;28;20546;-65
2023/07/19 03:34:16;;;;;;;10.55;6.65;;;19.40;99.90;;;;;;4177476;28;20036;-63
2023/07/19 03:36:17;;;;;;;11.32;6.65;;;19.40;99.90;;;;;;4178309;28;20021;-64
2023/07/19 03:38:19;;;;;;;12.18;6.85;;;19.40;99.90;;;;;;4180516;28;20021;-65
2023/07/19 03:40:20;;;;;;;9.95;6.30;;;19.50;99.90;;;;;;4179568;28;20028;-67
2023/07/19 03:42:21;;;;;;;11.70;6.35;;;19.50;99.90;;;;;;4180096;28;20455;-65
2023/07/19 03:44:22;;;;;;;12.48;6.43;;;19.60;99.90;;;;;;4179915;28;20480;-65
2023/07/19 03:46:23;;;;;;;10.98;7.00;;;19.60;99.90;;;;;;4193947;28;20024;-65
2023/07/19 03:48:24;;;;;;;14.05;6.45;;;19.60;99.90;;;;;;4179494;28;20045;-64
2023/07/19 03:50:25;;;;;;;8.85;6.22;;;19.60;99.90;;;;;;4179472;28;20037;-65
2023/07/19 03:52:27;;;;;;;17.08;6.50;;;19.60;99.90;;;;;;4180788;28;20664;-64
2023/07/19 03:54:28;;;;;;;10.00;6.65;;;19.70;99.90;;;;;;4179302;28;20044;-64
2023/07/19 03:56:29;;;;;;;11.98;7.20;;;19.70;99.90;;;;;;4180964;28;20041;-63
2023/07/19 03:58:30;;;;;;;9.88;6.10;;;19.70;99.90;;;;;;4179084;28;20048;-63
2023/07/19 04:00:31;;;;;;;10.68;6.85;;;19.80;99.90;;;;;;4180015;28;20059;-64
2023/07/19 04:02:32;;;;;;;9.48;5.80;;;19.90;99.90;;;;;;4174456;28;20419;-64
2023/07/19 04:04:34;;;;;;;20.85;7.53;;;20.20;99.90;;;;;;4180116;28;20041;-65
2023/07/19 04:06:35;;;;;;;12.00;6.47;;;20.60;99.90;;;;;;4178628;28;20059;-65
2023/07/19 04:08:36;;;;;;;9.60;5.85;;;20.70;99.90;;;;;;4178919;28;20037;-67
2023/07/19 04:10:37;;;;;;;11.98;6.63;;;20.70;99.90;;;;;;4175611;28;20049;-64
2023/07/19 04:12:38;;;;;;;13.98;6.90;;;20.70;99.90;;;;;;4179261;28;20033;-64
2023/07/19 04:14:39;;;;;;;12.88;6.43;;;20.60;99.90;;;;;;4179420;28;20083;-64
2023/07/19 04:16:41;;;;;;;11.18;6.68;;;20.60;99.90;;;;;;4178453;28;20087;-64
2023/07/19 04:18:42;;;;;;;10.07;7.00;;;20.50;99.90;;;;;;4180175;28;20173;-65
2023/07/19 04:20:43;;;;;;;11.32;6.05;;;20.40;99.90;;;;;;4178615;28;20075;-64
2023/07/19 04:22:45;;;;;;;9.45;5.88;;;20.30;99.90;;;;;;4179144;28;20017;-65
2023/07/19 04:24:46;;;;;;;15.10;5.97;;;20.20;99.90;;;;;;4178364;28;20131;-65
2023/07/19 04:26:47;;;;;;;9.82;6.18;;;20.30;99.90;;;;;;4178758;28;20075;-64
2023/07/19 04:28:48;;;;;;;14.82;6.65;;;20.30;99.90;;;;;;4178527;28;20094;-64
2023/07/19 04:30:49;;;;;;;10.00;6.88;;;20.30;99.90;;;;;;4179189;28;20036;-64
2023/07/19 04:32:54;;;;;;;10.50;5.75;;;20.30;99.90;;;;;;4173626;28;20445;-65
2023/07/19 04:34:55;;;;;;;9.38;5.30;;;20.20;99.90;;;;;;4177839;28;20075;-66
2023/07/19 04:36:57;;;;;;;8.15;5.82;;;20.20;99.90;;;;;;4177890;28;20110;-65
2023/07/19 04:38:58;;;;;;;9.73;6.10;;;20.30;99.90;;;;;;4178310;28;20088;-66
2023/07/19 04:41:02;;;;;;;7.43;5.60;;;20.70;99.90;;;;;;4178042;28;20095;-65
2023/07/19 04:43:04;;;;;;;11.05;5.88;;;20.60;99.90;;;;;;4178605;28;20106;-64
2023/07/19 04:45:05;;;;;;;10.02;5.65;;;20.60;99.90;;;;;;4178629;28;20067;-64
2023/07/19 04:47:08;;;;;;;7.57;6.05;;;20.70;99.90;;;;;;4177880;28;20087;-64
2023/07/19 04:49:09;;;;;;;6.30;5.30;;;20.60;99.90;;;;;;4179269;28;20040;-64
2023/07/19 04:51:10;;;;;;;9.23;5.30;;;20.60;99.90;;;;;;4177883;28;20041;-64
2023/07/19 04:53:12;;;;;;;8.32;5.78;;;20.50;99.90;;;;;;4179319;28;20078;-64
2023/07/19 04:55:13;;;;;;;9.35;5.85;;;20.50;99.90;;;;;;4177562;28;20037;-65
2023/07/19 04:57:14;;;;;;;7.95;5.57;;;20.40;99.90;;;;;;4179428;28;20547;-67
2023/07/19 04:59:15;;;;;;;9.13;6.13;;;20.30;99.90;;;;;;4177894;28;20041;-63
2023/07/19 05:01:16;;;;;;;8.32;5.40;;;20.30;99.90;;;;;;4179269;28;20091;-64
2023/07/19 05:03:18;;;;;;;7.68;5.78;;;20.40;99.90;;;;;;4178133;28;20037;-64
2023/07/19 05:05:20;;;;;;;8.10;5.50;;;20.50;99.90;;;;;;4179032;28;20136;-65
2023/07/19 05:07:21;;;;;;;8.05;6.28;;;20.80;99.90;;;;;;4177935;28;20074;-64
2023/07/19 05:09:22;;;;;;;6.30;5.03;;;21.20;99.90;;;;;;4179026;28;20041;-63
2023/07/19 05:11:25;;;;;;;7.28;5.32;;;21.60;99.90;;;;;;4178319;28;20025;-66
2023/07/19 05:13:26;;;;;;;6.60;5.25;;;22.00;99.90;;;;;;4178796;28;20032;-64
2023/07/19 05:15:27;;;;;;;6.35;4.70;;;22.50;99.90;;;;;;4160402;28;20033;-64
2023/07/19 05:17:28;;;;;;;6.40;4.78;;;22.70;99.90;;;;;;4178360;28;20098;-65
2023/07/19 05:19:29;;;;;;;9.38;4.90;;;22.80;99.90;;;;;;4178437;28;20041;-65
2023/07/19 05:21:30;;;;;;;10.45;5.60;;;22.60;99.90;;;;;;4177867;28;20558;-64
2023/07/19 05:23:31;;;;;;;9.07;4.53;;;22.80;99.90;;;;;;4179040;28;20041;-65
2023/07/19 05:25:33;;;;;;;10.77;5.90;;;22.90;99.90;;;;;;4177474;28;20412;-63
2023/07/19 05:27:34;;;;;;;7.47;5.47;;;23.10;99.90;;;;;;4178275;28;20037;-64
2023/07/19 05:29:35;;;;;;;7.28;5.13;;;23.20;99.90;;;;;;4177690;28;20103;-64
2023/07/19 05:31:36;;;;;;;7.97;5.03;;;23.30;99.90;;;;;;4160914;28;20045;-64
2023/07/19 05:33:37;;;;;;;6.82;5.00;;;23.30;99.90;;;;;;4177510;28;20483;-63
2023/07/19 05:35:38;;;;;;;8.35;4.97;;;23.20;99.90;;;;;;4160500;28;20041;-65
2023/07/19 05:37:40;;;;;;;9.18;5.28;;;23.40;99.90;;;;;;4177383;28;20033;-64
2023/07/19 05:39:41;;;;;;;6.38;4.68;;;23.40;99.90;;;;;;4178276;28;20033;-65
2023/07/19 05:41:42;;;;;;;5.78;4.65;;;23.30;99.90;;;;;;4177572;28;20155;-64
2023/07/19 05:43:44;;;;;;;6.93;5.28;;;23.30;99.90;;;;;;4177709;28;20037;-64
2023/07/19 05:45:45;;;;;;;10.32;5.97;;;23.30;99.90;;;;;;4177817;28;20526;-64
2023/07/19 05:47:47;;;;;;;7.57;5.80;;;23.30;99.90;;;;;;4177540;28;20029;-66
2023/07/19 05:49:48;;;;;;;7.38;5.45;;;23.30;99.90;;;;;;4177799;28;20029;-66
2023/07/19 05:51:50;;;;;;;8.65;5.25;;;23.40;99.90;;;;;;4176979;28;20096;-64
2023/07/19 05:53:51;;;;;;;9.73;5.38;;;23.30;99.90;;;;;;4178230;28;20063;-65
2023/07/19 05:55:52;;;;;;;9.13;5.13;;;23.60;99.90;;;;;;4177128;28;20515;-64
2023/07/19 05:57:54;;;;;;;6.88;5.57;;;23.80;99.90;;;;;;4178238;28;20037;-64
2023/07/19 05:59:55;;;;;;;7.00;5.40;;;23.80;99.90;;;;;;4177040;28;20029;-64
2023/07/19 06:01:56;;;;;;;8.70;5.55;;;23.60;99.90;;;;;;4177862;28;20510;-65
2023/07/19 06:03:57;;;;;;;9.82;4.82;;;23.60;99.90;;;;;;4177176;28;20082;-64
2023/07/19 06:05:58;;;;;;;6.15;4.65;;;23.70;99.90;;;;;;4178131;28;20510;-64
2023/07/19 06:07:59;;;;;;;7.18;5.45;;;23.70;99.90;;;;;;4177165;28;20033;-64
2023/07/19 06:10:01;;;;;;;13.05;5.32;;;24.00;99.90;;;;;;4159708;28;20041;-64
2023/07/19 06:12:02;;;;;;;6.25;5.03;;;24.10;99.90;;;;;;4177248;28;20037;-65
2023/07/19 06:14:03;;;;;;;8.27;6.28;;;24.20;99.90;;;;;;4177757;28;20172;-65
2023/07/19 06:16:04;;;;;;;8.68;5.72;;;24.20;99.90;;;;;;4177069;28;20033;-65
2023/07/19 06:18:05;;;;;;;8.38;5.10;;;24.30;99.90;;;;;;4177401;28;20465;-64
2023/07/19 06:20:10;;;;;;;6.03;5.43;;;24.30;99.90;;;;;;4176893;28;20038;-65
2023/07/19 06:22:11;;;;;;;7.07;5.57;;;24.40;99.90;;;;;;4176987;28;20013;-64
2023/07/19 06:24:12;;;;;;;6.65;4.90;;;24.30;99.90;;;;;;4177933;28;20374;-64
2023/07/19 06:26:14;;;;;;;7.80;5.35;;;24.10;99.90;;;;;;4176681;28;20092;-64
2023/07/19 06:28:15;;;;;;;9.07;5.65;;;23.90;99.90;;;;;;4177872;28;20090;-64
2023/07/19 06:30:16;;;;;;;10.55;5.80;;;23.80;99.90;;;;;;4176682;28;20041;-64
2023/07/19 06:32:17;;;;;;;9.18;6.32;;;23.90;99.90;;;;;;4159719;28;20115;-64
2023/07/19 06:34:18;;;;;;;9.27;6.43;;;23.90;99.90;;;;;;4176218;28;20040;-64
2023/07/19 06:36:20;;;;;;;11.20;6.57;;;23.80;99.90;;;;;;4177694;28;20070;-64
2023/07/19 06:38:21;;;;;;;9.00;6.28;;;23.70;99.90;;;;;;4176533;28;20029;-64
2023/07/19 06:40:22;;;;;;;12.52;6.43;;;23.50;99.90;;;;;;4177789;28;20459;-65
2023/07/19 06:42:23;;;;;;;11.00;6.22;;;23.40;99.90;;;;;;4176573;28;20449;-65
2023/07/19 06:44:24;;;;;;;12.05;6.70;;;23.40;99.90;;;;;;4176834;28;20481;-64
2023/07/19 06:46:25;;;;;;;11.05;6.53;;;23.50;99.90;;;;;;4176827;28;20025;-66
2023/07/19 06:48:26;;;;;;;11.73;5.80;;;23.50;99.90;;;;;;4158866;28;20421;-64
2023/07/19 06:50:28;;;;;;;8.85;6.38;;;23.50;99.90;;;;;;4176260;28;20049;-63
2023/07/19 06:52:29;;;;;;;9.55;5.68;;;23.60;99.90;;;;;;4176344;28;20445;-64
2023/07/19 06:54:30;;;;;;;8.15;5.70;;;23.80;99.90;;;;;;4176973;28;20121;-64
2023/07/19 06:56:33;;;;;;;8.73;5.93;;;23.90;99.90;;;;;;4176266;28;20025;-63
2023/07/19 06:58:34;;;;;;;9.23;5.78;;;24.10;99.90;;;;;;4177522;28;20024;-63
2023/07/19 07:00:35;;;;;;;7.97;5.20;;;24.40;99.90;;;;;;4176154;28;20037;-62
2023/07/19 07:02:37;;;;;;;7.88;4.65;;;24.80;99.90;;;;;;4177276;28;20090;-64
2023/07/19 07:04:38;;;;;;;5.97;4.97;;;24.90;99.90;;;;;;4176098;28;20021;-63
2023/07/19 07:06:39;;;;;;;10.18;5.45;;;25.00;99.90;;;;;;4177138;28;20086;-63
2023/07/19 07:08:40;;;;;;;8.77;5.30;;;25.10;99.90;;;;;;4157825;28;20469;-64
2023/07/19 07:10:42;;;;;;;7.85;4.40;;;25.30;99.90;;;;;;4176100;28;20045;-64
2023/07/19 07:12:44;;;;;;;9.27;5.13;;;25.40;99.90;;;;;;4158057;28;20481;-63
2023/07/19 07:14:45;;;;;;;7.75;5.10;;;25.50;99.90;;;;;;4176251;28;20037;-64
2023/07/19 07:16:46;;;;;;;11.80;5.55;;;25.50;99.90;;;;;;4176062;28;20373;-65
2023/07/19 07:18:47;;;;;;;9.07;5.13;;;25.50;99.90;;;;;;4176329;28;20041;-63
2023/07/19 07:20:51;;;;;;;6.25;5.50;;;25.50;99.90;;;;;;4176302;28;20107;-63
2023/07/19 07:22:53;;;;;;;10.88;5.35;;;25.30;99.90;;;;;;4176119;28;20025;-64
2023/07/19 07:24:54;;;;;;;6.38;5.25;;;25.30;99.90;;;;;;4176191;28;20071;-64
2023/07/19 07:26:55;;;;;;;9.88;5.30;;;25.20;99.90;;;;;;4175809;28;20162;-65
2023/07/19 07:28:57;;;;;;;6.85;5.38;;;25.20;99.90;;;;;;4177006;28;20660;-63
2023/07/19 07:31:05;;;;;;;7.53;5.50;;;25.50;99.90;;;;;;4175459;28;20447;-63
2023/07/19 07:33:07;;;;;;;11.60;6.85;;;25.80;99.90;;;;;;4177096;28;20423;-64
2023/07/19 07:35:08;;;;;;;12.10;4.95;;;25.70;99.90;;;;;;4175912;28;20447;-64
2023/07/19 07:37:09;;;;;;;9.73;5.47;;;25.80;99.90;;;;;;4176813;28;20112;-64
2023/07/19 07:39:11;;;;;;;10.85;5.10;;;25.90;99.90;;;;;;4176023;28;20025;-63
2023/07/19 07:41:12;;;;;;;5.60;4.13;;;26.10;99.90;;;;;;4177026;28;20109;-65
2023/07/19 07:43:13;;;;;;;8.18;4.75;;;26.20;99.90;;;;;;4175492;28;20041;-65
2023/07/19 07:45:14;;;;;;;7.07;4.63;;;26.20;99.90;;;;;;4177081;28;20431;-64
2023/07/19 07:47:16;;;;;;;8.93;4.80;;;26.20;99.90;;;;;;4175730;28;20017;-64
2023/07/19 07:49:17;;;;;;;5.40;4.13;;;26.20;99.90;;;;;;4176180;28;20041;-65
2023/07/19 07:51:18;;;;;;;7.18;4.15;;;26.10;99.90;;;;;;4176078;28;20139;-64
2023/07/19 07:53:20;;;;;;;8.23;4.70;;;26.20;99.90;;;;;;4176165;28;20432;-64
2023/07/19 07:55:22;;;;;;;6.00;4.82;;;26.30;99.90;;;;;;4176438;28;20190;-63
2023/07/19 07:57:23;;;;;;;8.82;4.68;;;26.30;99.90;;;;;;4175625;28;20051;-64
2023/07/19 07:59:24;;;;;;;5.47;4.40;;;26.20;99.90;;;;;;4176551;28;20366;-64
2023/07/19 08:01:26;;;;;;;10.25;5.03;;;26.10;99.90;;;;;;4175944;28;20482;-64
2023/07/19 08:03:27;;;;;;;7.05;4.38;;;26.20;99.90;;;;;;4176523;28;20036;-65
2023/07/19 08:05:29;;;;;;;7.07;4.43;;;26.30;99.90;;;;;;4174941;28;20036;-64
2023/07/19 08:07:30;;;;;;;4.82;4.38;;;26.40;99.90;;;;;;4176544;28;20086;-63
2023/07/19 08:09:33;;;;;;;5.47;4.63;;;26.40;99.90;;;;;;4174774;28;20049;-64
2023/07/19 08:11:34;;;;;;;6.13;4.32;;;26.50;99.90;;;;;;4176764;28;20437;-64
2023/07/19 08:13:36;;;;;;;13.68;4.25;;;26.60;99.90;;;;;;4175103;28;20044;-64
2023/07/19 08:15:37;;;;;;;8.00;4.50;;;26.60;99.90;;;;;;4176825;28;20029;-63
2023/07/19 08:17:39;;;;;;;7.20;3.85;;;26.60;99.90;;;;;;4175404;28;20102;-64
2023/07/19 08:19:40;;;;;;;4.93;4.07;;;26.70;99.90;;;;;;4176594;28;20087;-64
2023/07/19 08:21:41;;;;;;;4.57;3.97;;;26.70;99.90;;;;;;4176271;28;20107;-64
2023/07/19 08:23:42;;;;;;;8.68;4.93;;;26.80;99.90;;;;;;4179031;28;20448;-63
2023/07/19 08:25:43;;;;;;;11.75;4.13;;;26.90;99.90;;;;;;4179012;28;20040;-65
2023/07/19 08:27:44;;;;;;;7.45;4.22;;;27.10;99.90;;;;;;4178753;28;20465;-65
2023/07/19 08:29:46;;;;;;;4.93;3.75;;;27.10;99.90;;;;;;4178923;28;20078;-64
2023/07/19 08:31:47;;;;;;;5.47;3.90;;;27.20;99.90;;;;;;4178658;28;20146;-64
2023/07/19 08:33:48;;;;;;;5.30;3.80;;;27.20;99.90;;;;;;4179117;28;20501;-64
2023/07/19 08:35:50;;;;;;;5.35;3.85;;;27.10;99.90;;;;;;4178139;28;20029;-64
2023/07/19 08:37:51;;;;;;;6.63;4.50;;;27.20;99.90;;;;;;4179522;28;20021;-65
2023/07/19 08:39:52;;;;;;;7.70;3.90;;;27.00;99.90;;;;;;4178412;28;20049;-66
2023/07/19 08:41:53;;;;;;;4.72;4.10;;;27.10;99.90;;;;;;4178913;28;20059;-64
2023/07/19 08:43:55;;;;;;;5.95;4.38;;;27.20;99.90;;;;;;4177591;28;20033;-65
2023/07/19 08:45:57;;;;;;;5.43;4.20;;;27.30;99.90;;;;;;4179252;28;20427;-66
2023/07/19 08:47:58;;;;;;;4.10;3.70;;;27.40;99.90;;;;;;4160035;28;20076;-64
2023/07/19 08:50:00;;;;;;;4.55;3.80;;;27.40;99.90;;;;;;4179119;28;20095;-64
2023/07/19 08:52:02;;;;;;;6.68;3.90;;;27.40;99.90;;;;;;4178160;28;20021;-64
2023/07/19 08:54:03;;;;;;;7.07;5.00;;;27.30;99.90;;;;;;4178875;28;20030;-64
2023/07/19 08:56:05;;;;;;;8.82;4.30;;;27.50;99.90;;;;;;4178276;28;20090;-63
2023/07/19 08:58:06;;;;;;;6.57;4.32;;;27.70;99.90;;;;;;4178377;28;20033;-64
2023/07/19 09:00:07;;;;;;;6.78;4.47;;;27.70;99.90;;;;;;4178137;28;20061;-65
2023/07/19 09:02:09;;;;;;;5.07;3.45;;;27.80;99.90;;;;;;4177952;28;20075;-65
2023/07/19 09:04:10;;;;;;;8.05;3.67;;;27.80;99.90;;;;;;4178528;28;20050;-64
2023/07/19 09:06:21;;;;;;;4.80;3.88;;;27.80;99.90;;;;;;4177557;28;20078;-65
2023/07/19 09:08:37;;;;;;;7.72;3.55;;;27.90;99.90;;;;;;4178052;28;20103;-64
2023/07/19 09:10:44;;;;;;;5.18;3.30;;;27.90;99.90;;;;;;4177489;28;20036;-63
2023/07/19 09:12:46;;;;;;;4.45;3.78;;;28.00;99.90;;;;;;4161018;28;20414;-64
2023/07/19 09:14:47;;;;;;;7.72;4.22;;;28.10;99.90;;;;;;4177560;28;20037;-64
2023/07/19 09:16:50;;;;;;;4.20;3.22;;;28.00;99.90;;;;;;4178702;28;20028;-64
2023/07/19 09:18:51;;;;;;;7.05;4.15;;;28.00;99.90;;;;;;4177007;28;20091;-65
2023/07/19 09:20:58;;;;;;;5.45;3.67;;;27.90;99.90;;;;;;4178661;28;20114;-65
2023/07/19 09:23:04;;;;;;;8.18;3.70;;;28.10;99.90;;;;;;4177721;28;20018;-64
2023/07/19 09:25:11;;;;;;;5.03;3.95;;;28.30;99.90;;;;;;4178662;28;20453;-65
2023/07/19 09:27:24;;;;;;;4.88;3.58;;;28.30;99.90;;;;;;4177588;28;20299;-65
2023/07/19 09:29:30;;;;;;;4.90;3.53;;;28.30;99.90;;;;;;4178627;28;20055;-64
2023/07/19 09:31:31;;;;;;;4.85;3.63;;;28.40;99.90;;;;;;4177367;28;20037;-65
2023/07/19 09:33:32;;;;;;;10.10;4.07;;;28.50;99.90;;;;;;4177522;28;20059;-64
2023/07/19 09:35:33;;;;;;;4.78;3.58;;;28.40;99.90;;;;;;4176755;28;20045;-65
2023/07/19 09:37:35;;;;;;;4.90;3.30;;;28.40;99.90;;;;;;4178300;28;20028;-65
2023/07/19 09:39:36;;;;;;;7.93;4.00;;;28.40;99.90;;;;;;4177344;28;20029;-64
2023/07/19 09:41:38;;;;;;;5.65;3.40;;;28.40;99.90;;;;;;4177714;28;20485;-65
2023/07/19 09:43:41;;;;;;;6.60;3.45;;;28.50;99.90;;;;;;4177651;28;20086;-65
2023/07/19 09:45:45;;;;;;;4.38;3.97;;;28.60;99.90;;;;;;4177621;28;20473;-64
2023/07/19 09:47:48;;;;;;;7.18;3.28;;;28.60;99.90;;;;;;4177980;28;20063;-65
2023/07/19 09:49:49;;;;;;;4.97;3.40;;;28.60;99.90;;;;;;4176648;28;20481;-65
2023/07/19 09:51:51;;;;;;;4.18;3.40;;;28.60;99.90;;;;;;4178171;28;20051;-65
2023/07/19 09:53:53;;;;;;;7.28;4.20;;;28.50;99.90;;;;;;4176736;28;20456;-65
2023/07/19 09:55:55;;;;;;;15.43;4.10;;;28.50;99.90;;;;;;4178369;28;20542;-65
2023/07/19 09:57:58;;;;;;;5.90;3.97;;;28.60;99.90;;;;;;4176976;28;20029;-65
2023/07/19 10:00:00;;;;;;;5.65;3.85;;;28.60;99.90;;;;;;4178039;28;20029;-65
2023/07/19 10:02:02;;;;;;;7.20;3.55;;;28.60;99.90;;;;;;4176522;28;20435;-64
2023/07/19 10:04:28;;;;;;;4.38;3.50;;;28.70;99.90;;;;;;4177612;28;20045;-67
2023/07/19 10:06:30;;;;;;;7.60;3.58;;;28.70;99.90;;;;;;4176956;28;20083;-64
2023/07/19 10:08:31;;;;;;;3.60;3.28;;;28.70;99.90;;;;;;4177959;28;20098;-63
2023/07/19 10:10:40;;;;;;;4.65;3.78;;;28.70;99.90;;;;;;4176751;28;20041;-64
2023/07/19 10:12:50;;;;;;;3.30;3.00;;;28.70;99.90;;;;;;4177921;28;20078;-63
2023/07/19 10:14:51;;;;;;;9.55;3.55;;;28.70;99.90;;;;;;4176762;28;20041;-64
2023/07/19 10:16:59;;;;;;;4.68;3.33;;;28.80;99.90;;;;;;4177215;28;20493;-64
2023/07/19 10:19:10;;;;;;;3.75;3.30;;;29.00;99.90;;;;;;4176886;28;20025;-65
2023/07/19 10:21:11;;;;;;;4.95;3.22;;;29.00;99.90;;;;;;4159507;28;20096;-64
2023/07/19 10:23:14;;;;;;;10.27;3.97;;;29.10;99.90;;;;;;4176184;28;20087;-64
2023/07/19 10:25:21;;;;;;;5.88;3.47;;;29.10;99.90;;;;;;4177623;28;20033;-64
2023/07/19 10:27:35;;;;;;;8.07;3.72;;;29.20;99.90;;;;;;4176669;28;20431;-64
2023/07/19 10:29:44;;;;;;;7.57;3.25;;;29.10;99.90;;;;;;4177716;28;20392;-64
2023/07/19 10:31:45;;;;;;;9.25;3.38;;;29.20;99.90;;;;;;4176372;28;20477;-63
2023/07/19 10:33:47;;;;;;;6.60;3.80;;;29.40;99.90;;;;;;4177312;28;20033;-64